Hauptseite
METAR-TAF:

METAR-TAF

Flughäfen :

Fliegerhorst Ingolstadt/Manching

Ingolstadt, Deutschland

Breite: 48-43N, Länge: 011-32E, Höhe: 367 m

Beobachtung

Neuester Wetterbericht von vor 21 Minuten, um 20:20 UTC
Wind 2 kt aus West/Südwest
Temperatur 6°C
Luftfeuchtigkeit 65%
Luftdruck 1019 hPa
Sichtweite 10 km oder mehr

METAR: ETSI 032020Z AUTO 25002KT 9999 // ////// 06/00 Q1019 ///

Zeit: 22:41 (20:41 UTC)

Prognose

Neuester Wetterbericht von vor 10 Stunden und 26 Minuten, um 10:15 UTC
Gültige Prognose vom 03 um 11 UTC bis 03 um 20 UTC
Wind 10 kt aus West
Sichtweite: 1100 m
Durchbrochene Bewölkung in der Höhe von 7000 ft

TAF: ETSI 031015Z 0311/0320 27010KT 9999 NSW BKN070 CANCEL 1100

Wetterbeobachtungen und Prognosen von mehr als 4000 Flughäfen (METAR und TAF Bericht).

Die verfügbaren Stationen werden durch gelbe und rote Markierungen auf der Karte dargestellt.

Führen Sie die Maus auf sie, um den Namen der Station zu sehen.

Darauf klicken, um die Beobachtung von Wetterbeobachtungen und Prognosen zu sehen.

Um die Karte zu ändern : klicken Sie auf den grünen Tasten mit einem schwarzen Kreuz Zum Vergrößern, auf den grünen Button mit einem Gedankenstrich zu verkleinern, oder auf die grünen Pfeile für benachbarte Karten.


METAR-TAF: